CheckWX is a tool to help pilots better visualize weather data.  It is not intended as a substitute for an official pre-flight weather briefing.

12:51:49 UTC

KNUQ METAR
Moffett Federal Afld Airport
Mountain View, California, USA
Current

56 mins ago

KNUQ 221156Z 13003KT 10SM CLR 06/M04 A3002 RMK AO2 SLP167 T00561039 10100 20050 51016
Observed
Feb-22 @ 11:56 UTC
Wind
  • 130° at 3 KTS
Visibility
10 SM
Flight Rules
VFR
Cloud Levels
  • Clear skies
Temperature
C / 43°F
Dewpoint
-4°C / 25°F
Humidity
49%
Altimeter
30.02" Hg
Pressure
1016.7 hPa
Previous

2 hours ago

KNUQ 221056Z 23003KT 10SM CLR 06/M04 A3001 RMK AO2 SLP163 T00611039
Observed
Feb-22 @ 10:56 UTC
Wind
  • 230° at 3 KTS
Visibility
10 SM
Flight Rules
VFR
Cloud Levels
  • Clear skies
Temperature
C / 43°F
Dewpoint
-4°C / 25°F
Humidity
49%
Altimeter
30.01" Hg
Pressure
1016.3 hPa
Previous

3 hours ago

KNUQ 220956Z 34005KT 10SM CLR 07/M04 A2999 RMK AO2 SLP157 T00671039
Observed
Feb-22 @ 09:56 UTC
Wind
  • 340° at 5 KTS
Visibility
10 SM
Flight Rules
VFR
Cloud Levels
  • Clear skies
Temperature
C / 45°F
Dewpoint
-4°C / 25°F
Humidity
46%
Altimeter
29.99" Hg
Pressure
1015.7 hPa